Saturday, June 25, 2016
15:54 UTC
  |  Log In   |  Register Free
Airport Search:

Farmington Regional Airport
(KFAM)

Farmington Regional Airport Diagram
No Airport Diagram Available

FAA data valid effective May 26 2016 - Jul 21 2016 (unless otherwise noted).

 
 
 
 
 
 
 
 
 
 
 
 
 
 
Current Aviation Weather for KFAM

Weather Summary


The most recent METAR observation for FAM was updated at: 12:55 UTC
METAR for KFAM is not available. Closest METAR is for
KFAM  (most recent observation was updatred at 25:15 UTC)
251535Z 19007KT 10SM CLR 30/23 A3011 RMK AO2 SLP302 PWINO FZRANO RVRNO

TAF for KFAM is not available.
GlobalAir.com is loading additional information.
 Current Weather at FAM
82.0 F° (27.8 C°)

South winds at 9.2 mph
Pressure:
30.12 in
Humidity:
65%
Wind:
South at 9.2 mph
Dew Point:
69.1 F° (20.6 C°)
Visibility:
10.00 mi
FAM NOAA Radar




Find All Airport Services Find A Hotel Find A Rental Car Find A Golf Course Find A Restaurant $100 Hamburger



Airport Weather Forecast for KFAM

Translated METAR for KFAM (1535 UTC)
METAR:
KFAM 251535Z 19007KT 10SM CLR 30/23 A3011 RMK AO2 SLP302 PWINO FZRANO RVRNO
Conditions at:
KFAM (Farmington Rgnl, MO) observed 1535 UTC 25 June 2016
Temperature:
30°C (86°F)
Dewpoint:
23°C (73.4°F) [RH = 66.2]
Pressure:
30.11 inches Hg (1019.6 mb)
pressure at sea level is 302 in Hg
Winds:
from the S (190 degrees) at 8.1 mph (7 knots: 3.6 m/s)
Visibility:
10 mile(s)
Ceiling:
at least 12,000 feet AGL
Clouds:
Clear below 12,000 feet AGL
Remarks:
site is automated and HAS a precipitation sensor
precipitation identifier sensor not available

Translated TAF for TAF for FAM is not available. Refer to local area forecast.
FBO's on the Field
FBO Company Facility Photos Services Transportation Aviation Fuel Prices: Prices include tax
Catering Weather Repair Courtesy Rental Type 100LL JetA JetA+ MOGAS 8087
 
Farmington Regional Airport

This FBO has not yet been rated
FS:Shell
Last Updated: May-31
Login to update fuel prices
SS:
Contact Farmington Regional AirportMore FBO Information
 
Add another FBO Facility Photos Catering Weather Repair Courtesy Rental Type 100LL JetA JetA+ MOGAS 8087
Services Transportation Aviation Fuel Prices: Prices include tax


model-print
model-print
model-print
model-print